sensor_id;sensor_type;location;lat;lon;timestamp;pressure;altitude;pressure_sealevel;temperature;humidity
63190;BME280;49286;44.460;26.114;2023-04-19T00:00:25;100043.06;;;8.54;100.00
63190;BME280;49286;44.460;26.114;2023-04-19T00:02:51;100143.47;;;9.22;100.00
63190;BME280;49286;44.460;26.114;2023-04-19T00:05:18;100134.75;;;9.18;100.00
63190;BME280;49286;44.460;26.114;2023-04-19T00:07:44;100121.63;;;9.07;100.00
63190;BME280;49286;44.460;26.114;2023-04-19T00:10:11;100095.44;;;8.89;100.00
63190;BME280;49286;44.460;26.114;2023-04-19T00:12:36;100120.78;;;9.18;100.00
63190;BME280;49286;44.460;26.114;2023-04-19T00:15:02;100147.88;;;9.37;100.00
63190;BME280;49286;44.460;26.114;2023-04-19T00:17:27;100037.84;;;8.64;100.00
63190;BME280;49286;44.460;26.114;2023-04-19T00:19:53;100023.00;;;8.51;100.00
63190;BME280;49286;44.460;26.114;2023-04-19T00:22:19;100145.22;;;9.17;100.00
63190;BME280;49286;44.460;26.114;2023-04-19T00:24:44;100091.94;;;8.82;100.00
63190;BME280;49286;44.460;26.114;2023-04-19T00:27:10;100114.69;;;9.11;100.00
63190;BME280;49286;44.460;26.114;2023-04-19T00:29:35;100145.22;;;9.23;100.00
63190;BME280;49286;44.460;26.114;2023-04-19T00:32:01;99995.91;;;8.31;100.00
63190;BME280;49286;44.460;26.114;2023-04-19T00:34:26;100018.63;;;8.42;100.00
63190;BME280;49286;44.460;26.114;2023-04-19T00:36:52;100138.25;;;9.16;100.00
63190;BME280;49286;44.460;26.114;2023-04-19T00:39:17;100134.72;;;9.20;100.00
63190;BME280;49286;44.460;26.114;2023-04-19T00:41:42;100102.44;;;8.99;100.00
63190;BME280;49286;44.460;26.114;2023-04-19T00:44:08;100102.44;;;8.99;100.00
63190;BME280;49286;44.460;26.114;2023-04-19T00:46:36;100124.28;;;9.14;100.00
63190;BME280;49286;44.460;26.114;2023-04-19T00:49:01;100123.38;;;9.07;100.00
63190;BME280;49286;44.460;26.114;2023-04-19T00:51:27;100072.78;;;8.93;100.00
63190;BME280;49286;44.460;26.114;2023-04-19T00:53:53;100002.09;;;8.56;100.00
63190;BME280;49286;44.460;26.114;2023-04-19T00:56:20;100023.91;;;8.73;100.00
63190;BME280;49286;44.460;26.114;2023-04-19T00:58:47;100024.81;;;8.91;100.00
63190;BME280;49286;44.460;26.114;2023-04-19T01:01:13;100120.78;;;9.61;100.00
63190;BME280;49286;44.460;26.114;2023-04-19T01:03:38;100094.59;;;9.50;100.00
63190;BME280;49286;44.460;26.114;2023-04-19T01:06:04;99976.84;;;8.81;100.00
63190;BME280;49286;44.460;26.114;2023-04-19T01:08:29;100011.69;;;8.66;100.00
63190;BME280;49286;44.460;26.114;2023-04-19T01:10:55;100122.53;;;9.54;100.00
63190;BME280;49286;44.460;26.114;2023-04-19T01:13:20;100105.94;;;9.11;100.00
63190;BME280;49286;44.460;26.114;2023-04-19T01:15:46;100044.84;;;8.92;100.00
63190;BME280;49286;44.460;26.114;2023-04-19T01:18:11;100079.78;;;9.14;100.00
63190;BME280;49286;44.460;26.114;2023-04-19T01:20:38;100109.44;;;9.59;100.00
63190;BME280;49286;44.460;26.114;2023-04-19T01:23:03;99993.41;;;8.92;100.00
63190;BME280;49286;44.460;26.114;2023-04-19T01:25:29;100003.81;;;8.49;100.00
63190;BME280;49286;44.460;26.114;2023-04-19T01:27:55;100002.97;;;8.45;100.00
63190;BME280;49286;44.460;26.114;2023-04-19T01:30:20;100110.31;;;9.08;100.00
63190;BME280;49286;44.460;26.114;2023-04-19T01:32:46;99981.19;;;8.62;100.00
63190;BME280;49286;44.460;26.114;2023-04-19T01:35:11;99975.97;;;8.71;100.00
63190;BME280;49286;44.460;26.114;2023-04-19T01:37:37;99964.63;;;8.64;100.00
63190;BME280;49286;44.460;26.114;2023-04-19T01:40:05;99978.59;;;8.79;100.00
63190;BME280;49286;44.460;26.114;2023-04-19T01:42:31;100130.38;;;9.72;100.00
63190;BME280;49286;44.460;26.114;2023-04-19T01:44:57;100073.66;;;9.39;100.00
63190;BME280;49286;44.460;26.114;2023-04-19T01:47:22;100117.28;;;9.69;100.00
63190;BME280;49286;44.460;26.114;2023-04-19T01:49:49;99990.78;;;9.00;100.00
63190;BME280;49286;44.460;26.114;2023-04-19T01:52:14;99990.78;;;8.69;100.00
63190;BME280;49286;44.460;26.114;2023-04-19T01:54:40;100048.34;;;9.21;100.00
63190;BME280;49286;44.460;26.114;2023-04-19T01:57:05;100084.13;;;9.39;100.00
63190;BME280;49286;44.460;26.114;2023-04-19T01:59:31;100091.09;;;8.93;100.00
63190;BME280;49286;44.460;26.114;2023-04-19T02:01:56;100105.97;;;9.44;100.00
63190;BME280;49286;44.460;26.114;2023-04-19T02:04:21;100110.31;;;9.58;100.00
63190;BME280;49286;44.460;26.114;2023-04-19T02:06:47;100002.97;;;8.78;100.00
63190;BME280;49286;44.460;26.114;2023-04-19T02:09:12;99974.22;;;8.70;100.00
63190;BME280;49286;44.460;26.114;2023-04-19T02:11:38;99976.81;;;8.45;100.00
63190;BME280;49286;44.460;26.114;2023-04-19T02:14:03;99974.13;;;8.29;100.00
63190;BME280;49286;44.460;26.114;2023-04-19T02:16:29;99946.25;;;8.35;100.00
63190;BME280;49286;44.460;26.114;2023-04-19T02:18:54;100104.22;;;9.51;100.00
63190;BME280;49286;44.460;26.114;2023-04-19T02:21:20;99960.28;;;8.66;100.00
63190;BME280;49286;44.460;26.114;2023-04-19T02:23:45;100109.44;;;9.54;100.00
63190;BME280;49286;44.460;26.114;2023-04-19T02:26:11;99982.06;;;8.93;100.00
63190;BME280;49286;44.460;26.114;2023-04-19T02:28:37;100103.31;;;9.57;100.00
63190;BME280;49286;44.460;26.114;2023-04-19T02:31:04;100081.50;;;9.38;100.00
63190;BME280;49286;44.460;26.114;2023-04-19T02:33:30;100099.84;;;9.42;100.00
63190;BME280;49286;44.460;26.114;2023-04-19T02:35:56;99957.56;;;8.33;100.00
63190;BME280;49286;44.460;26.114;2023-04-19T02:38:21;100083.25;;;9.22;100.00
63190;BME280;49286;44.460;26.114;2023-04-19T02:40:47;100112.94;;;9.48;100.00
63190;BME280;49286;44.460;26.114;2023-04-19T02:43:12;99996.91;;;9.02;100.00
63190;BME280;49286;44.460;26.114;2023-04-19T02:45:38;100112.03;;;9.62;100.00
63190;BME280;49286;44.460;26.114;2023-04-19T02:48:03;100099.84;;;9.61;100.00
63190;BME280;49286;44.460;26.114;2023-04-19T02:50:31;100064.91;;;9.52;100.00
63190;BME280;49286;44.460;26.114;2023-04-19T02:52:57;100092.84;;;9.72;100.00
63190;BME280;49286;44.460;26.114;2023-04-19T02:55:23;99956.75;;;8.89;100.00
63190;BME280;49286;44.460;26.114;2023-04-19T02:57:48;100084.09;;;9.73;100.00
63190;BME280;49286;44.460;26.114;2023-04-19T03:00:14;100063.19;;;9.32;100.00
63190;BME280;49286;44.460;26.114;2023-04-19T03:02:41;99960.28;;;8.80;100.00
63190;BME280;49286;44.460;26.114;2023-04-19T03:05:08;100097.19;;;9.64;100.00
63190;BME280;49286;44.460;26.114;2023-04-19T03:07:34;100065.78;;;9.55;100.00
63190;BME280;49286;44.460;26.114;2023-04-19T03:09:59;99955.00;;;8.94;100.00
63190;BME280;49286;44.460;26.114;2023-04-19T03:12:25;99927.13;;;8.75;100.00
63190;BME280;49286;44.460;26.114;2023-04-19T03:14:50;100091.09;;;9.68;100.00
63190;BME280;49286;44.460;26.114;2023-04-19T03:17:16;99969.84;;;9.03;100.00
63190;BME280;49286;44.460;26.114;2023-04-19T03:19:41;100094.56;;;9.82;100.00
63190;BME280;49286;44.460;26.114;2023-04-19T03:22:07;100097.19;;;9.68;100.00
63190;BME280;49286;44.460;26.114;2023-04-19T03:24:32;99991.66;;;9.11;100.00
63190;BME280;49286;44.460;26.114;2023-04-19T03:26:58;100079.72;;;9.77;100.00
63190;BME280;49286;44.460;26.114;2023-04-19T03:29:23;100079.69;;;9.78;100.00
63190;BME280;49286;44.460;26.114;2023-04-19T03:31:49;99951.53;;;9.04;100.00
63190;BME280;49286;44.460;26.114;2023-04-19T03:34:15;99975.06;;;9.21;100.00
63190;BME280;49286;44.460;26.114;2023-04-19T03:36:40;99977.72;;;8.92;100.00
63190;BME280;49286;44.460;26.114;2023-04-19T03:39:06;100112.94;;;9.38;100.00
63190;BME280;49286;44.460;26.114;2023-04-19T03:41:31;100113.78;;;9.55;100.00
63190;BME280;49286;44.460;26.114;2023-04-19T03:43:57;100108.53;;;9.81;100.00
63190;BME280;49286;44.460;26.114;2023-04-19T03:46:23;99950.66;;;9.01;100.00
63190;BME280;49286;44.460;26.114;2023-04-19T03:48:49;100021.28;;;9.42;100.00
63190;BME280;49286;44.460;26.114;2023-04-19T03:51:15;100097.16;;;9.81;100.00
63190;BME280;49286;44.460;26.114;2023-04-19T03:53:41;99970.69;;;9.19;100.00
63190;BME280;49286;44.460;26.114;2023-04-19T03:56:06;100099.75;;;9.94;100.00
63190;BME280;49286;44.460;26.114;2023-04-19T03:58:32;100107.63;;;10.01;100.00
63190;BME280;49286;44.460;26.114;2023-04-19T04:00:58;100052.66;;;9.65;100.00
63190;BME280;49286;44.460;26.114;2023-04-19T04:03:23;100014.28;;;9.49;100.00
63190;BME280;49286;44.460;26.114;2023-04-19T04:05:49;100108.50;;;10.03;100.00
63190;BME280;49286;44.460;26.114;2023-04-19T04:08:14;99997.75;;;9.35;100.00
63190;BME280;49286;44.460;26.114;2023-04-19T04:10:40;100100.63;;;10.03;100.00
63190;BME280;49286;44.460;26.114;2023-04-19T04:13:05;100066.59;;;9.87;100.00
63190;BME280;49286;44.460;26.114;2023-04-19T04:15:31;99951.50;;;9.11;100.00
63190;BME280;49286;44.460;26.114;2023-04-19T04:17:56;99971.56;;;9.22;100.00
63190;BME280;49286;44.460;26.114;2023-04-19T04:20:22;100062.25;;;9.77;100.00
63190;BME280;49286;44.460;26.114;2023-04-19T04:22:47;100114.59;;;10.02;100.00
63190;BME280;49286;44.460;26.114;2023-04-19T04:25:13;100085.78;;;9.88;100.00
63190;BME280;49286;44.460;26.114;2023-04-19T04:27:40;99984.69;;;9.13;100.00
63190;BME280;49286;44.460;26.114;2023-04-19T04:30:07;100081.47;;;9.71;100.00
63190;BME280;49286;44.460;26.114;2023-04-19T04:32:33;100106.72;;;9.97;100.00
63190;BME280;49286;44.460;26.114;2023-04-19T04:35:03;100055.25;;;9.78;100.00
63190;BME280;49286;44.460;26.114;2023-04-19T04:37:31;100035.22;;;9.63;100.00
63190;BME280;49286;44.460;26.114;2023-04-19T04:39:58;100094.53;;;9.98;100.00
63190;BME280;49286;44.460;26.114;2023-04-19T04:42:24;100111.09;;;10.04;100.00
63190;BME280;49286;44.460;26.114;2023-04-19T04:44:50;100139.03;;;10.14;100.00
63190;BME280;49286;44.460;26.114;2023-04-19T04:47:16;100122.47;;;10.05;100.00
63190;BME280;49286;44.460;26.114;2023-04-19T04:49:42;100126.81;;;10.17;100.00
63190;BME280;49286;44.460;26.114;2023-04-19T04:52:07;99973.28;;;9.26;100.00
63190;BME280;49286;44.460;26.114;2023-04-19T04:54:33;100002.06;;;9.49;100.00
63190;BME280;49286;44.460;26.114;2023-04-19T04:56:59;100097.13;;;10.07;100.00
63190;BME280;49286;44.460;26.114;2023-04-19T04:59:25;100044.84;;;9.58;100.00
63190;BME280;49286;44.460;26.114;2023-04-19T05:01:51;100110.22;;;10.07;100.00
63190;BME280;49286;44.460;26.114;2023-04-19T05:04:17;100104.13;;;10.05;100.00
63190;BME280;49286;44.460;26.114;2023-04-19T05:06:43;100125.03;;;10.31;100.00
63190;BME280;49286;44.460;26.114;2023-04-19T05:09:09;100111.91;;;10.25;100.00
63190;BME280;49286;44.460;26.114;2023-04-19T05:11:35;100028.16;;;9.89;100.00
63190;BME280;49286;44.460;26.114;2023-04-19T05:14:01;100132.91;;;10.32;100.00
63190;BME280;49286;44.460;26.114;2023-04-19T05:16:27;100109.41;;;9.80;100.00
63190;BME280;49286;44.460;26.114;2023-04-19T05:18:52;100094.56;;;9.84;100.00
63190;BME280;49286;44.460;26.114;2023-04-19T05:21:17;100033.50;;;9.40;100.00
63190;BME280;49286;44.460;26.114;2023-04-19T05:23:43;100031.72;;;9.59;100.00
63190;BME280;49286;44.460;26.114;2023-04-19T05:26:08;100143.31;;;10.54;100.00
63190;BME280;49286;44.460;26.114;2023-04-19T05:28:37;100033.31;;;10.14;100.00
63190;BME280;49286;44.460;26.114;2023-04-19T05:31:03;100136.19;;;10.77;100.00
63190;BME280;49286;44.460;26.114;2023-04-19T05:33:28;99930.47;;;9.49;100.00
63190;BME280;49286;44.460;26.114;2023-04-19T05:35:54;100100.66;;;9.95;100.00
63190;BME280;49286;44.460;26.114;2023-04-19T05:38:20;100137.25;;;10.33;100.00
63190;BME280;49286;44.460;26.114;2023-04-19T05:40:45;100001.25;;;9.32;100.00
63190;BME280;49286;44.460;26.114;2023-04-19T05:43:10;100121.50;;;10.27;100.00
63190;BME280;49286;44.460;26.114;2023-04-19T05:45:36;100041.19;;;10.02;100.00
63190;BME280;49286;44.460;26.114;2023-04-19T05:48:01;100040.97;;;10.55;100.00
63190;BME280;49286;44.460;26.114;2023-04-19T05:50:27;100034.59;;;10.95;100.00
63190;BME280;49286;44.460;26.114;2023-04-19T05:52:52;100161.47;;;12.10;100.00
63190;BME280;49286;44.460;26.114;2023-04-19T05:55:18;100046.25;;;12.39;100.00
63190;BME280;49286;44.460;26.114;2023-04-19T05:57:43;100052.66;;;12.82;100.00
63190;BME280;49286;44.460;26.114;2023-04-19T06:00:09;100078.94;;;13.90;100.00
63190;BME280;49286;44.460;26.114;2023-04-19T06:02:35;100194.41;;;15.13;100.00
63190;BME280;49286;44.460;26.114;2023-04-19T06:05:01;100203.84;;;15.62;100.00
63190;BME280;49286;44.460;26.114;2023-04-19T06:07:29;100194.78;;;15.74;100.00
63190;BME280;49286;44.460;26.114;2023-04-19T06:09:55;100199.53;;;15.95;100.00
63190;BME280;49286;44.460;26.114;2023-04-19T06:12:21;100168.28;;;15.75;100.00
63190;BME280;49286;44.460;26.114;2023-04-19T06:14:46;100192.28;;;15.66;100.00
63190;BME280;49286;44.460;26.114;2023-04-19T06:17:12;100136.34;;;14.71;100.00
63190;BME280;49286;44.460;26.114;2023-04-19T06:19:38;100159.72;;;14.89;100.00
63190;BME280;49286;44.460;26.114;2023-04-19T06:22:04;100098.41;;;14.30;100.00
63190;BME280;49286;44.460;26.114;2023-04-19T06:24:29;100079.03;;;13.86;100.00
63190;BME280;49286;44.460;26.114;2023-04-19T06:26:56;100154.16;;;14.13;100.00
63190;BME280;49286;44.460;26.114;2023-04-19T06:29:21;100096.91;;;13.17;100.00
63190;BME280;49286;44.460;26.114;2023-04-19T06:31:48;100153.91;;;13.79;100.00
63190;BME280;49286;44.460;26.114;2023-04-19T06:34:14;100147.13;;;13.62;100.00
63190;BME280;49286;44.460;26.114;2023-04-19T06:36:39;100164.78;;;13.60;100.00
63190;BME280;49286;44.460;26.114;2023-04-19T06:39:05;100038.28;;;12.44;100.00
63190;BME280;49286;44.460;26.114;2023-04-19T06:41:31;100091.13;;;12.92;100.00
63190;BME280;49286;44.460;26.114;2023-04-19T06:43:56;100000.91;;;11.40;100.00
63190;BME280;49286;44.460;26.114;2023-04-19T06:46:21;100129.81;;;12.88;100.00
63190;BME280;49286;44.460;26.114;2023-04-19T06:48:47;100148.66;;;13.20;100.00
63190;BME280;49286;44.460;26.114;2023-04-19T06:51:12;100107.94;;;12.83;100.00
63190;BME280;49286;44.460;26.114;2023-04-19T06:53:38;100036.47;;;12.49;100.00
63190;BME280;49286;44.460;26.114;2023-04-19T06:56:04;100030.09;;;12.64;100.00
63190;BME280;49286;44.460;26.114;2023-04-19T06:58:30;100020.53;;;12.58;100.00
63190;BME280;49286;44.460;26.114;2023-04-19T07:00:58;100122.38;;;13.18;100.00
63190;BME280;49286;44.460;26.114;2023-04-19T07:03:25;100089.13;;;13.08;100.00
63190;BME280;49286;44.460;26.114;2023-04-19T07:05:51;100054.25;;;12.92;100.00
63190;BME280;49286;44.460;26.114;2023-04-19T07:08:17;100148.22;;;13.50;100.00
63190;BME280;49286;44.460;26.114;2023-04-19T07:10:42;100141.44;;;13.36;100.00
63190;BME280;49286;44.460;26.114;2023-04-19T07:13:10;100175.59;;;12.78;100.00
63190;BME280;49286;44.460;26.114;2023-04-19T07:15:36;100036.94;;;12.15;100.00
63190;BME280;49286;44.460;26.114;2023-04-19T07:18:01;100094.34;;;12.51;100.00
63190;BME280;49286;44.460;26.114;2023-04-19T07:20:28;100139.38;;;12.94;100.00
63190;BME280;49286;44.460;26.114;2023-04-19T07:22:58;100093.16;;;12.73;100.00
63190;BME280;49286;44.460;26.114;2023-04-19T07:25:24;100027.66;;;12.52;100.00
63190;BME280;49286;44.460;26.114;2023-04-19T07:27:51;100031.38;;;12.35;100.00
63190;BME280;49286;44.460;26.114;2023-04-19T07:30:17;100143.78;;;12.94;100.00
63190;BME280;49286;44.460;26.114;2023-04-19T07:32:43;100158.81;;;13.47;100.00
63190;BME280;49286;44.460;26.114;2023-04-19T07:35:09;100165.94;;;13.41;100.00
63190;BME280;49286;44.460;26.114;2023-04-19T07:37:34;100162.53;;;13.36;100.00
63190;BME280;49286;44.460;26.114;2023-04-19T07:40:00;100080.44;;;13.03;100.00
63190;BME280;49286;44.460;26.114;2023-04-19T07:42:25;99957.91;;;12.23;100.00
63190;BME280;49286;44.460;26.114;2023-04-19T07:44:51;100103.22;;;13.05;100.00
63190;BME280;49286;44.460;26.114;2023-04-19T07:47:16;100134.88;;;13.60;100.00
63190;BME280;49286;44.460;26.114;2023-04-19T07:49:42;100040.84;;;13.09;100.00
63190;BME280;49286;44.460;26.114;2023-04-19T07:52:08;100009.22;;;13.09;100.00
63190;BME280;49286;44.460;26.114;2023-04-19T07:54:34;100158.13;;;13.89;100.00
63190;BME280;49286;44.460;26.114;2023-04-19T07:57:00;100131.97;;;13.77;100.00
63190;BME280;49286;44.460;26.114;2023-04-19T07:59:26;100163.78;;;14.15;100.00
63190;BME280;49286;44.460;26.114;2023-04-19T08:01:51;100150.25;;;14.34;100.00
63190;BME280;49286;44.460;26.114;2023-04-19T08:04:17;100144.47;;;14.13;100.00
63190;BME280;49286;44.460;26.114;2023-04-19T08:06:44;100146.31;;;14.10;100.00
63190;BME280;49286;44.460;26.114;2023-04-19T08:09:10;100108.19;;;14.26;100.00
63190;BME280;49286;44.460;26.114;2023-04-19T08:11:35;100146.28;;;14.11;100.00
63190;BME280;49286;44.460;26.114;2023-04-19T08:14:01;100142.06;;;14.46;100.00
63190;BME280;49286;44.460;26.114;2023-04-19T08:16:26;100017.56;;;13.84;100.00
63190;BME280;49286;44.460;26.114;2023-04-19T08:18:53;100026.50;;;13.77;100.00
63190;BME280;49286;44.460;26.114;2023-04-19T08:21:20;100146.41;;;14.04;100.00
63190;BME280;49286;44.460;26.114;2023-04-19T08:23:45;99988.59;;;13.34;100.00
63190;BME280;49286;44.460;26.114;2023-04-19T08:26:11;100014.28;;;13.71;100.00
63190;BME280;49286;44.460;26.114;2023-04-19T08:28:38;100123.88;;;13.86;100.00
63190;BME280;49286;44.460;26.114;2023-04-19T08:31:08;100119.09;;;14.06;100.00
63190;BME280;49286;44.460;26.114;2023-04-19T08:33:34;100097.56;;;14.28;100.00
63190;BME280;49286;44.460;26.114;2023-04-19T08:36:00;100127.75;;;14.60;100.00
63190;BME280;49286;44.460;26.114;2023-04-19T08:38:26;100040.97;;;13.99;100.00
63190;BME280;49286;44.460;26.114;2023-04-19T08:40:52;100113.63;;;14.61;100.00
63190;BME280;49286;44.460;26.114;2023-04-19T08:43:19;100153.25;;;14.61;100.00
63190;BME280;49286;44.460;26.114;2023-04-19T08:45:49;100023.31;;;13.58;100.00
63190;BME280;49286;44.460;26.114;2023-04-19T08:48:15;100105.88;;;14.54;100.00
63190;BME280;49286;44.460;26.114;2023-04-19T08:50:42;100118.53;;;14.79;100.00
63190;BME280;49286;44.460;26.114;2023-04-19T08:53:09;100135.56;;;15.05;100.00
63190;BME280;49286;44.460;26.114;2023-04-19T08:55:40;100040.91;;;14.44;100.00
63190;BME280;49286;44.460;26.114;2023-04-19T08:58:05;100124.44;;;14.90;100.00
63190;BME280;49286;44.460;26.114;2023-04-19T09:00:32;100128.50;;;15.05;100.00
63190;BME280;49286;44.460;26.114;2023-04-19T09:02:58;100141.91;;;14.57;100.00
63190;BME280;49286;44.460;26.114;2023-04-19T09:05:24;100137.31;;;14.65;100.00
63190;BME280;49286;44.460;26.114;2023-04-19T09:07:49;100130.41;;;14.60;100.00
63190;BME280;49286;44.460;26.114;2023-04-19T09:10:18;100010.81;;;14.12;100.00
63190;BME280;49286;44.460;26.114;2023-04-19T09:13:04;100033.84;;;14.04;100.00
63190;BME280;49286;44.460;26.114;2023-04-19T09:15:37;100026.94;;;13.99;100.00
63190;BME280;49286;44.460;26.114;2023-04-19T09:18:05;100129.94;;;14.81;100.00
63190;BME280;49286;44.460;26.114;2023-04-19T09:20:38;100066.63;;;14.78;100.00
63190;BME280;49286;44.460;26.114;2023-04-19T09:23:06;100142.25;;;15.21;100.00
63190;BME280;49286;44.460;26.114;2023-04-19T09:25:32;100143.00;;;15.26;100.00
63190;BME280;49286;44.460;26.114;2023-04-19T09:28:11;99931.38;;;14.25;100.00
63190;BME280;49286;44.460;26.114;2023-04-19T09:30:38;100043.28;;;14.97;100.00
63190;BME280;49286;44.460;26.114;2023-04-19T09:33:04;100132.47;;;15.25;100.00
63190;BME280;49286;44.460;26.114;2023-04-19T09:35:44;100104.91;;;14.97;100.00
63190;BME280;49286;44.460;26.114;2023-04-19T09:38:11;100018.84;;;14.48;100.00
63190;BME280;49286;44.460;26.114;2023-04-19T09:40:38;100003.91;;;14.47;100.00
63190;BME280;49286;44.460;26.114;2023-04-19T09:43:04;100138.16;;;15.08;100.00
63190;BME280;49286;44.460;26.114;2023-04-19T09:45:39;100102.16;;;15.02;100.00
63190;BME280;49286;44.460;26.114;2023-04-19T09:48:06;100105.97;;;15.28;100.00
63190;BME280;49286;44.460;26.114;2023-04-19T09:50:32;100004.63;;;14.93;100.00
63190;BME280;49286;44.460;26.114;2023-04-19T09:52:58;100035.69;;;15.19;100.00
63190;BME280;49286;44.460;26.114;2023-04-19T09:55:25;100106.41;;;15.45;100.00
63190;BME280;49286;44.460;26.114;2023-04-19T09:57:52;100041.41;;;15.01;100.00
63190;BME280;49286;44.460;26.114;2023-04-19T10:00:18;100032.28;;;14.78;100.00
63190;BME280;49286;44.460;26.114;2023-04-19T10:02:46;100123.19;;;15.44;100.00
63190;BME280;49286;44.460;26.114;2023-04-19T10:05:19;100096.31;;;15.61;100.00
63190;BME280;49286;44.460;26.114;2023-04-19T10:07:45;100127.81;;;15.72;100.00
63190;BME280;49286;44.460;26.114;2023-04-19T10:10:14;100037.53;;;15.15;100.00
63190;BME280;49286;44.460;26.114;2023-04-19T10:12:40;100014.31;;;14.92;100.00
63190;BME280;49286;44.460;26.114;2023-04-19T10:15:08;100006.91;;;15.07;100.00
63190;BME280;49286;44.460;26.114;2023-04-19T10:17:34;100094.69;;;15.57;100.00
63190;BME280;49286;44.460;26.114;2023-04-19T10:20:04;100083.44;;;15.47;100.00
63190;BME280;49286;44.460;26.114;2023-04-19T10:22:32;100114.63;;;15.33;100.00
63190;BME280;49286;44.460;26.114;2023-04-19T10:25:13;100104.25;;;15.25;100.00
63190;BME280;49286;44.460;26.114;2023-04-19T10:27:41;100094.50;;;14.91;100.00
63190;BME280;49286;44.460;26.114;2023-04-19T10:30:21;100004.78;;;14.48;100.00
63190;BME280;49286;44.460;26.114;2023-04-19T10:32:57;99998.00;;;14.36;100.00
63190;BME280;49286;44.460;26.114;2023-04-19T10:35:32;100097.31;;;15.21;100.00
63190;BME280;49286;44.460;26.114;2023-04-19T10:43:16;100107.53;;;15.35;100.00
63190;BME280;49286;44.460;26.114;2023-04-19T10:45:42;99992.13;;;14.64;100.00
63190;BME280;49286;44.460;26.114;2023-04-19T10:51:21;100019.75;;;14.86;100.00
63190;BME280;49286;44.460;26.114;2023-04-19T10:56:15;100017.59;;;15.02;100.00
63190;BME280;49286;44.460;26.114;2023-04-19T11:07:04;100089.97;;;15.34;100.00
63190;BME280;49286;44.460;26.114;2023-04-19T11:14:26;100087.69;;;15.17;100.00
63190;BME280;49286;44.460;26.114;2023-04-19T11:16:54;100040.59;;;14.98;100.00
63190;BME280;49286;44.460;26.114;2023-04-19T11:19:19;99983.47;;;14.57;100.00
63190;BME280;49286;44.460;26.114;2023-04-19T11:21:45;100075.28;;;15.22;100.00
63190;BME280;49286;44.460;26.114;2023-04-19T11:24:11;100064.16;;;15.08;100.00
63190;BME280;49286;44.460;26.114;2023-04-19T11:26:37;100086.19;;;15.07;100.00
63190;BME280;49286;44.460;26.114;2023-04-19T11:29:03;100071.47;;;14.96;100.00
63190;BME280;49286;44.460;26.114;2023-04-19T11:31:33;100009.41;;;14.77;100.00
63190;BME280;49286;44.460;26.114;2023-04-19T11:33:59;100062.91;;;15.23;100.00
63190;BME280;49286;44.460;26.114;2023-04-19T11:36:26;99961.38;;;14.61;100.00
63190;BME280;49286;44.460;26.114;2023-04-19T11:38:52;100010.25;;;15.15;100.00
63190;BME280;49286;44.460;26.114;2023-04-19T11:41:17;99927.75;;;14.68;100.00
63190;BME280;49286;44.460;26.114;2023-04-19T11:43:43;100058.94;;;15.40;100.00
63190;BME280;49286;44.460;26.114;2023-04-19T11:46:11;99963.75;;;15.08;100.00
63190;BME280;49286;44.460;26.114;2023-04-19T11:48:38;100062.03;;;15.56;100.00
63190;BME280;49286;44.460;26.114;2023-04-19T11:51:04;100048.19;;;15.47;100.00
63190;BME280;49286;44.460;26.114;2023-04-19T11:53:31;99992.91;;;15.37;100.00
63190;BME280;49286;44.460;26.114;2023-04-19T11:56:03;99950.78;;;14.98;100.00
63190;BME280;49286;44.460;26.114;2023-04-19T11:58:37;100006.47;;;15.58;100.00
63190;BME280;49286;44.460;26.114;2023-04-19T12:01:08;100004.41;;;15.36;100.00
63190;BME280;49286;44.460;26.114;2023-04-19T12:03:40;99936.28;;;15.13;100.00
63190;BME280;49286;44.460;26.114;2023-04-19T12:06:21;100051.63;;;15.85;100.00
63190;BME280;49286;44.460;26.114;2023-04-19T12:08:48;100053.53;;;15.79;100.00
63190;BME280;49286;44.460;26.114;2023-04-19T12:11:15;100061.19;;;15.90;100.00
63190;BME280;49286;44.460;26.114;2023-04-19T12:13:41;99936.41;;;15.09;100.00
63190;BME280;49286;44.460;26.114;2023-04-19T12:16:09;100047.97;;;15.90;100.00
63190;BME280;49286;44.460;26.114;2023-04-19T12:18:48;100017.56;;;15.72;100.00
63190;BME280;49286;44.460;26.114;2023-04-19T12:21:25;100025.09;;;15.55;100.00
63190;BME280;49286;44.460;26.114;2023-04-19T12:23:59;99942.72;;;15.03;100.00
63190;BME280;49286;44.460;26.114;2023-04-19T12:26:26;100018.84;;;15.57;100.00
63190;BME280;49286;44.460;26.114;2023-04-19T12:28:55;99919.44;;;15.17;100.00
63190;BME280;49286;44.460;26.114;2023-04-19T12:31:21;100000.31;;;15.57;100.00
63190;BME280;49286;44.460;26.114;2023-04-19T12:33:47;100041.69;;;15.60;100.00
63190;BME280;49286;44.460;26.114;2023-04-19T12:36:13;99999.38;;;15.27;100.00
63190;BME280;49286;44.460;26.114;2023-04-19T12:38:39;99907.72;;;14.93;100.00
63190;BME280;49286;44.460;26.114;2023-04-19T12:41:04;100015.84;;;15.37;100.00
63190;BME280;49286;44.460;26.114;2023-04-19T12:43:31;100036.44;;;15.58;100.00
63190;BME280;49286;44.460;26.114;2023-04-19T12:45:57;99993.50;;;14.80;100.00
63190;BME280;49286;44.460;26.114;2023-04-19T12:48:23;99908.63;;;14.58;100.00
63190;BME280;49286;44.460;26.114;2023-04-19T12:50:49;99892.94;;;14.14;100.00
63190;BME280;49286;44.460;26.114;2023-04-19T12:53:14;99890.81;;;13.91;100.00
63190;BME280;49286;44.460;26.114;2023-04-19T12:55:40;99959.78;;;14.52;100.00